createdAt,value
2018-12-21T00:00:57.329Z,28.20
2018-12-21T00:03:31.465Z,27.70
2018-12-21T00:06:05.501Z,27.80
2018-12-21T00:08:39.869Z,27.73
2018-12-21T00:11:13.945Z,28.20
2018-12-21T00:13:48.029Z,28.47
2018-12-21T00:16:22.111Z,27.60
2018-12-21T00:18:56.158Z,28.50
2018-12-21T00:21:30.196Z,28.27
2018-12-21T00:24:04.754Z,28.00
2018-12-21T00:26:38.816Z,28.20
2018-12-21T00:29:13.192Z,28.40
2018-12-21T00:31:52.409Z,28.23
2018-12-21T00:34:31.816Z,27.90
2018-12-21T00:37:11.291Z,27.60
2018-12-21T00:39:50.886Z,28.10
2018-12-21T00:42:31.205Z,28.10
2018-12-21T00:45:08.957Z,27.93
2018-12-21T00:47:43.234Z,27.93
2018-12-21T00:50:17.416Z,27.93
2018-12-21T00:52:51.609Z,28.30
2018-12-21T00:55:25.690Z,28.07
2018-12-21T00:57:59.750Z,28.30
2018-12-21T01:00:33.961Z,27.93
2018-12-21T01:03:08.025Z,28.10
2018-12-21T01:05:42.398Z,27.90
2018-12-21T01:08:16.466Z,27.87
2018-12-21T01:10:50.997Z,27.70
2018-12-21T01:13:25.185Z,27.80
2018-12-21T01:15:59.217Z,27.73
2018-12-21T01:18:33.286Z,27.40
2018-12-21T01:21:07.951Z,28.43
2018-12-21T01:23:42.076Z,28.60
2018-12-21T01:26:16.130Z,28.00
2018-12-21T01:28:50.194Z,27.77
2018-12-21T01:31:24.265Z,28.20
2018-12-21T01:33:58.340Z,28.07
2018-12-21T01:36:32.409Z,28.10
2018-12-21T01:39:07.101Z,27.93
2018-12-21T01:41:41.244Z,28.30
2018-12-21T01:44:15.376Z,27.70
2018-12-21T01:46:49.416Z,27.83
2018-12-21T01:49:23.478Z,28.27
2018-12-21T01:51:57.533Z,28.10
2018-12-21T01:54:32.656Z,28.57
2018-12-21T01:57:06.705Z,28.27
2018-12-21T01:59:40.769Z,28.33
2018-12-21T02:02:14.849Z,28.40
2018-12-21T02:04:48.944Z,28.27
2018-12-21T02:07:23.149Z,28.60
2018-12-21T02:09:57.215Z,28.00
2018-12-21T02:12:31.244Z,27.83
2018-12-21T02:15:05.581Z,28.33
2018-12-21T02:17:39.636Z,27.63
2018-12-21T02:20:13.700Z,28.27
2018-12-21T02:22:48.805Z,28.17
2018-12-21T02:25:22.888Z,28.33
2018-12-21T02:27:56.957Z,28.13
2018-12-21T02:30:31.043Z,28.37
2018-12-21T02:33:05.095Z,28.00
2018-12-21T02:35:39.182Z,28.27
2018-12-21T02:38:13.277Z,28.00
2018-12-21T02:40:47.383Z,28.07
2018-12-21T02:43:21.444Z,28.17
2018-12-21T02:45:55.517Z,27.83
2018-12-21T02:48:29.553Z,28.17
2018-12-21T02:51:03.751Z,27.87
2018-12-21T02:53:37.862Z,28.13
2018-12-21T02:56:11.945Z,28.17
2018-12-21T02:58:46.045Z,28.40
2018-12-21T03:01:20.117Z,27.83
2018-12-21T03:03:54.166Z,27.43
2018-12-21T03:06:28.406Z,27.93
2018-12-21T03:09:02.556Z,28.27
2018-12-21T03:11:36.636Z,27.73
2018-12-21T03:14:10.715Z,27.73
2018-12-21T03:16:44.791Z,27.77
2018-12-21T03:19:18.830Z,27.90
2018-12-21T03:21:52.901Z,27.73
2018-12-21T03:24:26.975Z,28.17
2018-12-21T03:27:01.194Z,27.87
2018-12-21T03:29:35.278Z,27.83
2018-12-21T03:32:09.313Z,27.93
2018-12-21T03:34:43.406Z,27.83
2018-12-21T03:37:17.449Z,28.07
2018-12-21T03:39:51.664Z,27.87
2018-12-21T03:42:25.726Z,27.80
2018-12-21T03:44:59.809Z,28.03
2018-12-21T03:47:33.878Z,27.93
2018-12-21T03:50:08.084Z,28.37
2018-12-21T03:52:42.179Z,28.00
2018-12-21T03:55:16.237Z,28.40
2018-12-21T03:57:50.299Z,27.80
2018-12-21T04:00:24.440Z,28.00
2018-12-21T04:02:58.481Z,28.40
2018-12-21T04:05:32.578Z,28.00
2018-12-21T04:08:06.621Z,28.17
2018-12-21T04:10:40.723Z,27.87
2018-12-21T04:13:14.791Z,27.97
2018-12-21T04:15:48.852Z,27.87
2018-12-21T04:18:22.936Z,27.83
2018-12-21T04:20:57.003Z,28.17
2018-12-21T04:23:31.203Z,27.60
2018-12-21T04:26:05.266Z,27.80
2018-12-21T04:28:39.336Z,28.20
2018-12-21T04:31:13.438Z,28.43
2018-12-21T04:33:47.496Z,28.00
2018-12-21T04:36:21.614Z,27.50
2018-12-21T04:38:55.681Z,28.50
2018-12-21T04:41:29.749Z,28.37
2018-12-21T04:44:03.953Z,27.50
2018-12-21T04:46:38.026Z,28.03
2018-12-21T04:49:12.107Z,28.43
2018-12-21T04:51:46.299Z,28.07
2018-12-21T04:54:20.349Z,28.23
2018-12-21T04:56:54.421Z,28.17
2018-12-21T04:59:28.585Z,28.00
2018-12-21T05:02:02.910Z,28.17
2018-12-21T05:04:36.953Z,27.80
2018-12-21T05:07:12.650Z,27.53
2018-12-21T05:09:47.978Z,27.83
2018-12-21T05:12:22.155Z,27.97
2018-12-21T05:14:56.266Z,27.77
2018-12-21T05:17:30.336Z,27.60
2018-12-21T05:20:04.848Z,28.03
2018-12-21T05:22:38.941Z,27.63
2018-12-21T05:25:13.002Z,28.10
2018-12-21T05:27:47.050Z,28.03
2018-12-21T05:30:21.117Z,28.07
2018-12-21T05:32:55.182Z,27.43
2018-12-21T05:35:29.289Z,27.80
2018-12-21T05:38:03.331Z,27.43
2018-12-21T05:40:37.402Z,27.67
2018-12-21T05:43:11.474Z,28.03
2018-12-21T05:45:45.547Z,27.93
2018-12-21T05:48:19.606Z,27.80
2018-12-21T05:50:53.690Z,27.87
2018-12-21T05:53:27.743Z,27.80
2018-12-21T05:56:01.819Z,28.07
2018-12-21T05:58:35.862Z,27.90
2018-12-21T06:01:09.929Z,28.10
2018-12-21T06:03:44.109Z,27.67
2018-12-21T06:06:18.210Z,27.93
2018-12-21T06:08:52.302Z,27.77
2018-12-21T06:11:26.506Z,27.73
2018-12-21T06:14:01.120Z,27.87
2018-12-21T06:16:35.467Z,27.53
2018-12-21T06:19:09.506Z,27.77
2018-12-21T06:21:43.568Z,27.77
2018-12-21T06:24:17.630Z,27.97
2018-12-21T06:26:51.709Z,28.13
2018-12-21T06:29:25.762Z,27.73
2018-12-21T06:31:59.873Z,28.27
2018-12-21T06:34:33.929Z,27.57
2018-12-21T06:37:08.021Z,27.33
2018-12-21T06:39:42.079Z,27.10
2018-12-21T06:42:16.153Z,27.87
2018-12-21T06:44:50.202Z,27.47
2018-12-21T06:47:24.281Z,27.40
2018-12-21T06:49:58.322Z,27.83
2018-12-21T06:52:32.389Z,27.90
2018-12-21T06:55:06.684Z,27.50
2018-12-21T06:57:40.778Z,28.10
2018-12-21T07:00:14.882Z,27.63
2018-12-21T07:02:48.961Z,28.07
2018-12-21T07:05:23.037Z,27.73
2018-12-21T07:07:57.218Z,27.60
2018-12-21T07:10:31.286Z,27.57
2018-12-21T07:13:05.638Z,27.43
2018-12-21T07:15:39.818Z,27.17
2018-12-21T07:18:13.909Z,27.37
2018-12-21T07:20:47.949Z,27.53
2018-12-21T07:23:27.102Z,28.10
2018-12-21T07:25:58.093Z,27.67
2018-12-21T07:28:32.164Z,27.87
2018-12-21T07:31:06.365Z,27.30
2018-12-21T07:33:40.460Z,27.70
2018-12-21T07:36:14.662Z,27.60
2018-12-21T07:38:48.705Z,28.03
2018-12-21T07:41:23.004Z,28.00
2018-12-21T07:43:57.046Z,27.63
2018-12-21T07:46:32.105Z,27.60
2018-12-21T07:49:06.225Z,28.23
2018-12-21T07:51:40.292Z,27.53
2018-12-21T07:54:14.333Z,27.73
2018-12-21T07:56:48.424Z,27.37
2018-12-21T07:59:22.553Z,28.27
2018-12-21T08:01:56.637Z,28.87
2018-12-21T08:04:30.699Z,28.67
2018-12-21T08:07:04.773Z,27.93
2018-12-21T08:09:38.832Z,27.20
2018-12-21T08:12:12.901Z,27.50
2018-12-21T08:14:46.949Z,27.20
2018-12-21T08:17:21.013Z,27.37
2018-12-21T08:19:55.088Z,27.67
2018-12-21T08:22:29.151Z,27.17
2018-12-21T08:25:03.374Z,27.53
2018-12-21T08:27:37.444Z,27.70
2018-12-21T08:30:11.547Z,27.63
2018-12-21T08:32:45.670Z,27.53
2018-12-21T08:35:19.736Z,27.30
2018-12-21T08:37:53.820Z,27.63
2018-12-21T08:40:27.897Z,27.73
2018-12-21T08:43:01.957Z,27.23
2018-12-21T08:45:36.025Z,27.70
2018-12-21T08:48:10.113Z,27.47
2018-12-21T08:50:44.174Z,27.53
2018-12-21T08:53:18.268Z,28.07
2018-12-21T08:55:52.305Z,28.17
2018-12-21T08:58:26.390Z,28.07
2018-12-21T09:01:00.445Z,28.00
2018-12-21T09:03:34.521Z,28.10
2018-12-21T09:06:08.569Z,27.77
2018-12-21T09:08:42.629Z,27.60
2018-12-21T09:11:16.701Z,27.60
2018-12-21T09:13:50.784Z,27.37
2018-12-21T09:16:24.830Z,27.53
2018-12-21T09:18:58.945Z,27.87
2018-12-21T09:21:32.998Z,27.73
2018-12-21T09:24:07.081Z,27.43
2018-12-21T09:26:41.148Z,28.30
2018-12-21T09:29:15.247Z,27.90
2018-12-21T09:31:49.342Z,27.83
2018-12-21T09:34:23.403Z,27.53
2018-12-21T09:36:57.502Z,27.33
2018-12-21T09:39:31.536Z,27.57
2018-12-21T09:42:05.609Z,27.73
2018-12-21T09:44:39.659Z,27.53
2018-12-21T09:47:13.728Z,27.70
2018-12-21T09:49:47.765Z,27.37
2018-12-21T09:52:21.828Z,27.93
2018-12-21T09:54:55.881Z,27.70
2018-12-21T09:57:29.957Z,27.77
2018-12-21T10:00:04.490Z,27.70
2018-12-21T10:02:38.677Z,27.67
2018-12-21T10:05:15.080Z,27.60
2018-12-21T10:07:49.170Z,27.73
2018-12-21T10:10:23.241Z,27.57
2018-12-21T10:12:57.435Z,27.80
2018-12-21T10:15:31.612Z,27.57
2018-12-21T10:18:05.695Z,27.60
2018-12-21T10:20:39.805Z,28.03
2018-12-21T10:23:13.862Z,27.73
2018-12-21T10:25:47.932Z,28.07
2018-12-21T10:28:22.006Z,27.67
2018-12-21T10:30:56.050Z,27.83
2018-12-21T10:33:30.149Z,27.27
2018-12-21T10:36:04.333Z,27.47
2018-12-21T10:38:38.399Z,28.00
2018-12-21T10:41:12.456Z,27.87
2018-12-21T10:43:46.549Z,27.90
2018-12-21T10:46:20.740Z,27.63
2018-12-21T10:48:54.810Z,27.70
2018-12-21T10:51:28.886Z,27.80
2018-12-21T10:54:02.966Z,28.23
2018-12-21T10:56:37.161Z,28.10
2018-12-21T10:59:11.238Z,27.93
2018-12-21T11:01:45.323Z,27.73
2018-12-21T11:04:19.389Z,27.80
2018-12-21T11:06:53.457Z,28.40
2018-12-21T11:09:27.528Z,28.20
2018-12-21T11:12:01.573Z,27.70
2018-12-21T11:14:35.705Z,28.27
2018-12-21T11:17:09.762Z,27.53
2018-12-21T11:19:43.864Z,27.67
2018-12-21T11:22:17.906Z,28.27
2018-12-21T11:24:51.984Z,27.73
2018-12-21T11:27:26.058Z,28.07
2018-12-21T11:30:00.119Z,27.93
2018-12-21T11:32:34.194Z,28.40
2018-12-21T11:35:08.325Z,27.60
2018-12-21T11:37:42.424Z,28.07
2018-12-21T11:40:16.478Z,27.67
2018-12-21T11:42:50.548Z,28.13
2018-12-21T11:45:24.598Z,28.00
2018-12-21T11:47:58.662Z,28.13
2018-12-21T11:50:32.690Z,27.90
2018-12-21T11:53:06.759Z,28.13
2018-12-21T11:55:40.817Z,28.33
2018-12-21T11:58:14.897Z,28.47
2018-12-21T12:00:49.080Z,28.07
2018-12-21T12:03:23.194Z,28.13
2018-12-21T12:05:57.263Z,28.07
2018-12-21T12:08:31.325Z,28.07
2018-12-21T12:11:05.371Z,28.33
2018-12-21T12:13:39.458Z,27.83
2018-12-21T12:16:13.498Z,28.20
2018-12-21T12:18:47.580Z,27.87
2018-12-21T12:21:21.631Z,27.87
2018-12-21T12:23:56.057Z,27.90
2018-12-21T12:26:30.105Z,27.60
2018-12-21T12:29:04.206Z,28.20
2018-12-21T12:31:43.073Z,28.73
2018-12-21T12:34:17.926Z,27.90
2018-12-21T12:36:52.157Z,28.30
2018-12-21T12:39:26.376Z,27.97
2018-12-21T12:42:00.453Z,28.13
2018-12-21T12:44:34.526Z,28.13
2018-12-21T12:47:08.627Z,28.10
2018-12-21T12:49:42.683Z,27.97
2018-12-21T12:52:16.808Z,28.53
2018-12-21T12:54:50.885Z,28.07
2018-12-21T12:57:24.906Z,28.57
2018-12-21T12:59:58.941Z,28.20
2018-12-21T13:02:32.968Z,28.53
2018-12-21T13:05:08.282Z,28.30
2018-12-21T13:07:42.293Z,27.93
2018-12-21T13:10:16.352Z,28.07
2018-12-21T13:12:50.410Z,28.30
2018-12-21T13:15:24.461Z,28.23
2018-12-21T13:17:58.478Z,27.83
2018-12-21T13:20:32.522Z,28.17
2018-12-21T13:23:06.584Z,28.47
2018-12-21T13:25:40.659Z,27.87
2018-12-21T13:28:14.697Z,28.10
2018-12-21T13:30:48.799Z,28.57
2018-12-21T13:33:22.838Z,28.47
2018-12-21T13:35:56.935Z,27.90
2018-12-21T13:38:30.990Z,27.93
2018-12-21T13:41:05.066Z,27.93
2018-12-21T13:43:39.076Z,27.60
2018-12-21T13:46:13.201Z,27.80
2018-12-21T13:48:47.273Z,27.97
2018-12-21T13:51:21.402Z,28.23
2018-12-21T13:53:55.437Z,28.23
2018-12-21T13:56:29.525Z,28.10
2018-12-21T13:59:03.583Z,28.50
2018-12-21T14:01:37.614Z,28.07
2018-12-21T14:04:11.733Z,27.97
2018-12-21T14:06:45.746Z,27.93
2018-12-21T14:09:19.799Z,28.30
2018-12-21T14:11:53.813Z,28.07
2018-12-21T14:14:27.875Z,27.90
2018-12-21T14:17:01.930Z,28.03
2018-12-21T14:19:36.009Z,28.27
2018-12-21T14:22:10.035Z,28.20
2018-12-21T14:24:44.326Z,28.13
2018-12-21T14:27:19.543Z,28.77
2018-12-21T14:29:53.569Z,28.67
2018-12-21T14:32:27.594Z,28.70
2018-12-21T14:35:01.642Z,28.17
2018-12-21T14:37:35.682Z,28.27
2018-12-21T14:40:09.905Z,27.90
2018-12-21T14:42:43.963Z,28.07
2018-12-21T14:45:17.994Z,28.67
2018-12-21T14:47:52.196Z,28.00
2018-12-21T14:50:26.274Z,28.43
2018-12-21T14:53:01.625Z,28.27
2018-12-21T14:55:37.642Z,29.07
2018-12-21T14:58:12.813Z,29.07
2018-12-21T15:00:46.973Z,28.70
2018-12-21T15:03:23.200Z,28.63
2018-12-21T15:05:57.413Z,28.40
2018-12-21T15:08:32.481Z,28.83
2018-12-21T15:11:07.689Z,28.57
2018-12-21T15:13:41.813Z,28.43
2018-12-21T15:16:15.977Z,28.23
2018-12-21T15:18:50.241Z,28.70
2018-12-21T15:21:24.362Z,28.47
2018-12-21T15:23:58.530Z,28.80
2018-12-21T15:26:32.746Z,29.33
2018-12-21T15:29:06.861Z,28.73
2018-12-21T15:31:41.042Z,28.47
2018-12-21T15:34:15.153Z,28.03
2018-12-21T15:36:49.290Z,28.73
2018-12-21T15:39:23.501Z,28.60
2018-12-21T15:41:57.520Z,28.13
2018-12-21T15:44:31.660Z,28.60
2018-12-21T15:47:09.076Z,27.97
2018-12-21T15:49:41.808Z,29.07
2018-12-21T15:52:15.829Z,28.77
2018-12-21T15:54:49.908Z,29.00
2018-12-21T15:57:24.946Z,28.63
2018-12-21T15:59:59.064Z,29.20
2018-12-21T16:02:33.093Z,28.53
2018-12-21T16:05:08.130Z,28.40
2018-12-21T16:07:42.271Z,28.73
2018-12-21T16:10:16.308Z,28.20
2018-12-21T16:12:50.413Z,28.53
2018-12-21T16:15:24.449Z,28.27
2018-12-21T16:17:58.491Z,28.87
2018-12-21T16:20:32.542Z,28.87
2018-12-21T16:23:06.670Z,28.53
2018-12-21T16:25:40.748Z,28.47
2018-12-21T16:28:15.805Z,29.13
2018-12-21T16:30:49.878Z,28.67
2018-12-21T16:33:23.893Z,28.33
2018-12-21T16:35:57.950Z,28.50
2018-12-21T16:38:31.969Z,28.27
2018-12-21T16:41:06.024Z,28.33
2018-12-21T16:43:40.045Z,28.67
2018-12-21T16:46:18.327Z,28.40
2018-12-21T16:48:52.367Z,28.63
2018-12-21T16:51:26.525Z,28.40
2018-12-21T16:54:00.609Z,29.13
2018-12-21T16:56:34.753Z,28.70
2018-12-21T16:59:08.785Z,29.23
2018-12-21T17:01:42.832Z,29.00
2018-12-21T17:04:16.858Z,29.03
2018-12-21T17:06:51.844Z,28.77
2018-12-21T17:09:25.920Z,28.67
2018-12-21T17:12:00.221Z,29.50
2018-12-21T17:14:34.262Z,29.30
2018-12-21T17:17:09.412Z,29.00
2018-12-21T17:19:43.458Z,29.07
2018-12-21T17:22:17.514Z,29.20
2018-12-21T17:24:51.563Z,29.40
2018-12-21T17:27:25.589Z,29.43
2018-12-21T17:29:59.632Z,29.03
2018-12-21T17:32:33.704Z,29.10
2018-12-21T17:35:09.013Z,28.67
2018-12-21T17:37:44.040Z,29.03
2018-12-21T17:40:18.090Z,30.60
2018-12-21T17:42:54.312Z,28.70
2018-12-21T17:45:28.400Z,29.53
2018-12-21T17:48:02.442Z,28.90
2018-12-21T17:50:36.478Z,29.20
2018-12-21T17:53:10.531Z,30.50
2018-12-21T17:55:44.677Z,29.67
2018-12-21T17:58:18.774Z,31.67
2018-12-21T18:00:52.821Z,30.10
2018-12-21T18:03:33.485Z,28.97
2018-12-21T18:06:07.662Z,28.53
2018-12-21T18:08:41.741Z,28.73
2018-12-21T18:11:15.833Z,28.67
2018-12-21T18:13:49.964Z,28.57
2018-12-21T18:16:24.011Z,29.20
2018-12-21T18:18:58.161Z,29.37
2018-12-21T18:21:38.094Z,29.57
2018-12-21T18:24:12.312Z,29.83
2018-12-21T18:26:46.374Z,29.60
2018-12-21T18:29:20.406Z,29.43
2018-12-21T18:31:59.718Z,28.92
2018-12-21T18:34:36.298Z,28.93
2018-12-21T18:37:10.568Z,29.17
2018-12-21T18:39:44.820Z,28.97
2018-12-21T18:42:18.849Z,28.77
2018-12-21T18:44:52.922Z,29.37
2018-12-21T18:47:27.040Z,29.20
2018-12-21T18:50:01.214Z,29.30
2018-12-21T18:52:35.271Z,28.90
2018-12-21T18:55:12.488Z,29.27
2018-12-21T18:57:46.513Z,29.17
2018-12-21T19:00:20.725Z,28.80
2018-12-21T19:02:54.773Z,29.47
2018-12-21T19:05:28.826Z,29.17
2018-12-21T19:08:02.880Z,28.93
2018-12-21T19:10:37.013Z,29.40
2018-12-21T19:13:11.050Z,29.20
2018-12-21T19:15:45.113Z,28.83
2018-12-21T19:18:19.338Z,28.90
2018-12-21T19:20:53.484Z,29.20
2018-12-21T19:23:27.564Z,29.17
2018-12-21T19:26:01.731Z,28.97
2018-12-21T19:28:35.749Z,29.20
2018-12-21T19:31:09.828Z,29.17
2018-12-21T19:33:43.901Z,29.00
2018-12-21T19:36:18.038Z,28.37
2018-12-21T19:38:52.108Z,29.03
2018-12-21T19:41:26.253Z,28.33
2018-12-21T19:44:00.289Z,28.53
2018-12-21T19:46:34.334Z,29.03
2018-12-21T19:49:08.416Z,29.20
2018-12-21T19:51:42.658Z,28.73
2018-12-21T19:54:19.898Z,28.53
2018-12-21T19:57:04.665Z,28.87
2018-12-21T19:59:38.466Z,28.80
2018-12-21T20:02:12.518Z,28.57
2018-12-21T20:04:46.553Z,28.57
2018-12-21T20:07:20.624Z,28.63
2018-12-21T20:09:54.674Z,28.73
2018-12-21T20:12:28.733Z,28.70
2018-12-21T20:15:02.846Z,29.40
2018-12-21T20:17:36.902Z,29.33
2018-12-21T20:20:11.606Z,28.57
2018-12-21T20:22:45.765Z,28.47
2018-12-21T20:25:19.806Z,28.83
2018-12-21T20:27:53.893Z,28.70
2018-12-21T20:30:27.983Z,29.13
2018-12-21T20:33:02.029Z,29.17
2018-12-21T20:35:36.296Z,29.00
2018-12-21T20:38:10.337Z,29.30
2018-12-21T20:40:44.500Z,28.60
2018-12-21T20:43:18.570Z,28.77
2018-12-21T20:45:52.724Z,28.77
2018-12-21T20:48:26.882Z,28.63
2018-12-21T20:51:01.638Z,29.10
2018-12-21T20:53:35.836Z,28.40
2018-12-21T20:56:09.854Z,28.70
2018-12-21T20:58:49.682Z,28.77
2018-12-21T21:01:23.700Z,28.43
2018-12-21T21:03:57.773Z,28.93
2018-12-21T21:06:31.923Z,28.80
2018-12-21T21:09:08.452Z,28.63
2018-12-21T21:11:43.617Z,28.13
2018-12-21T21:14:18.904Z,28.30
2018-12-21T21:16:53.055Z,28.93
2018-12-21T21:19:30.001Z,28.77
2018-12-21T21:22:04.172Z,28.67
2018-12-21T21:24:38.209Z,29.27
2018-12-21T21:27:12.253Z,28.87
2018-12-21T21:29:46.271Z,28.63
2018-12-21T21:32:20.347Z,28.50
2018-12-21T21:34:54.385Z,28.40
2018-12-21T21:37:28.437Z,28.17
2018-12-21T21:40:03.390Z,28.43
2018-12-21T21:42:37.450Z,28.60
2018-12-21T21:45:11.585Z,28.57
2018-12-21T21:47:46.755Z,28.47
2018-12-21T21:50:20.785Z,28.47
2018-12-21T21:52:54.865Z,28.47
2018-12-21T21:55:28.962Z,28.83
2018-12-21T21:58:02.985Z,28.40
2018-12-21T22:00:37.074Z,28.63
2018-12-21T22:03:11.177Z,28.53
2018-12-21T22:05:45.242Z,28.60
2018-12-21T22:08:19.418Z,28.63
2018-12-21T22:11:01.534Z,28.10
2018-12-21T22:13:29.580Z,28.33
2018-12-21T22:16:03.764Z,28.47
2018-12-21T22:18:37.797Z,28.77
2018-12-21T22:21:11.839Z,28.53
2018-12-21T22:23:45.858Z,28.57
2018-12-21T22:26:19.892Z,28.47
2018-12-21T22:28:53.930Z,29.07
2018-12-21T22:31:28.004Z,28.77
2018-12-21T22:34:02.022Z,28.53
2018-12-21T22:36:36.224Z,28.23
2018-12-21T22:39:10.262Z,28.33
2018-12-21T22:41:44.301Z,28.03
2018-12-21T22:44:18.353Z,28.43
2018-12-21T22:46:53.433Z,28.40
2018-12-21T22:49:27.489Z,28.63
2018-12-21T22:52:01.602Z,28.47
2018-12-21T22:54:35.658Z,28.40
2018-12-21T22:57:09.714Z,28.70
2018-12-21T22:59:44.672Z,28.47
2018-12-21T23:02:19.817Z,28.67
2018-12-21T23:04:53.966Z,28.87
2018-12-21T23:07:27.988Z,28.27
2018-12-21T23:10:02.030Z,28.40
2018-12-21T23:12:36.129Z,28.30
2018-12-21T23:15:10.196Z,28.23
2018-12-21T23:17:44.225Z,29.27
2018-12-21T23:20:18.265Z,28.63
2018-12-21T23:22:52.296Z,28.37
2018-12-21T23:25:26.994Z,28.67
2018-12-21T23:28:04.911Z,28.83
2018-12-21T23:30:37.294Z,28.90
2018-12-21T23:33:11.334Z,28.37
2018-12-21T23:35:45.390Z,28.20
2018-12-21T23:38:19.442Z,28.40
2018-12-21T23:40:53.465Z,28.50
2018-12-21T23:43:27.517Z,28.40
2018-12-21T23:46:01.748Z,28.53
2018-12-21T23:48:35.875Z,28.53
2018-12-21T23:51:10.585Z,28.30
2018-12-21T23:53:44.613Z,28.60
2018-12-21T23:56:18.673Z,28.93
2018-12-21T23:58:52.728Z,28.33
